Time;durP1;ratioP1;P1;durP2;ratioP2;P2;SDS_P1;SDS_P2;PMS_P1;PMS_P2;Temp;Humidity;BMP_temperature;BMP_pressure;BME280_temperature;BME280_humidity;BME280_pressure;Samples;Min_cycle;Max_cycle;Signal;HPM_P1;HPM_P2
2023/06/19 00:00:31;;;;;;;8.43;7.70;;;23.00;99.90;;;;;;4977207;28;20582;-87
2023/06/19 00:02:59;;;;;;;8.15;7.38;;;23.00;99.90;;;;;;4977449;28;20486;-88
2023/06/19 00:05:26;;;;;;;8.70;7.45;;;23.00;99.90;;;;;;4995097;28;20222;-88
2023/06/19 00:07:53;;;;;;;8.07;7.28;;;22.90;99.90;;;;;;4992365;28;20316;-84
2023/06/19 00:10:20;;;;;;;8.45;7.68;;;22.90;99.90;;;;;;4976576;28;20884;-86
2023/06/19 00:12:47;;;;;;;8.25;7.55;;;22.90;99.90;;;;;;4988060;28;20228;-85
2023/06/19 00:15:14;;;;;;;8.32;7.53;;;22.90;99.90;;;;;;4996534;28;20286;-86
2023/06/19 00:17:41;;;;;;;10.25;8.02;;;22.90;99.90;;;;;;4977192;28;20200;-84
2023/06/19 00:20:10;;;;;;;8.48;7.63;;;22.90;99.90;;;;;;4976752;28;20272;-83
2023/06/19 00:22:37;;;;;;;8.63;7.72;;;22.80;99.90;;;;;;4981254;28;20287;-86
2023/06/19 00:25:05;;;;;;;8.30;7.50;;;22.80;99.90;;;;;;4976676;28;20295;-86
2023/06/19 00:27:31;;;;;;;7.82;7.05;;;22.80;99.90;;;;;;4976873;28;20687;-87
2023/06/19 00:30:01;;;;;;;8.95;7.28;;;22.80;99.90;;;;;;4984290;28;20238;-85
2023/06/19 00:32:29;;;;;;;8.23;7.53;;;22.80;99.90;;;;;;4996019;28;20204;-86
2023/06/19 00:34:56;;;;;;;11.27;7.68;;;22.70;99.90;;;;;;4996592;28;20203;-86
2023/06/19 00:37:24;;;;;;;9.70;8.25;;;22.80;99.90;;;;;;4995936;28;20208;-85
2023/06/19 00:39:51;;;;;;;10.77;8.48;;;22.90;99.90;;;;;;4981945;28;20597;-89
2023/06/19 00:42:18;;;;;;;9.52;7.50;;;22.90;99.90;;;;;;4976033;28;20228;-89
2023/06/19 00:44:45;;;;;;;9.07;7.32;;;23.00;99.90;;;;;;4976379;28;20295;-84
2023/06/19 00:47:12;;;;;;;8.23;6.68;;;23.00;99.90;;;;;;4975608;28;20239;-87
2023/06/19 00:49:39;;;;;;;7.82;6.95;;;22.90;99.90;;;;;;4976298;28;20247;-85
2023/06/19 00:52:07;;;;;;;7.25;6.20;;;22.90;99.90;;;;;;4976601;28;20755;-83
2023/06/19 00:54:35;;;;;;;7.85;5.80;;;22.90;99.90;;;;;;4979985;28;20196;-85
2023/06/19 00:57:03;;;;;;;6.63;5.38;;;22.90;99.90;;;;;;4995596;28;20287;-86
2023/06/19 00:59:30;;;;;;;5.63;5.13;;;22.90;99.90;;;;;;4995658;28;20275;-86
2023/06/19 01:01:57;;;;;;;6.40;5.35;;;22.80;99.90;;;;;;4995316;28;20199;-85
2023/06/19 01:04:25;;;;;;;6.60;5.35;;;22.90;99.90;;;;;;4981876;28;20216;-85
2023/06/19 01:06:58;;;;;;;5.57;5.07;;;22.80;99.90;;;;;;4976156;28;20285;-86
2023/06/19 01:09:29;;;;;;;5.55;5.05;;;22.80;99.90;;;;;;4975752;28;20732;-84
2023/06/19 01:12:05;;;;;;;5.85;5.28;;;22.70;99.90;;;;;;4975582;28;20197;-82
2023/06/19 01:14:37;;;;;;;6.15;4.63;;;22.70;99.90;;;;;;4975457;28;20196;-84
2023/06/19 01:17:04;;;;;;;4.63;4.22;;;22.70;99.90;;;;;;4975923;28;20706;-87
2023/06/19 01:19:32;;;;;;;5.00;4.50;;;22.60;99.90;;;;;;4976164;28;20200;-85
2023/06/19 01:22:03;;;;;;;4.03;3.22;;;22.60;99.90;;;;;;4975992;28;20201;-85
2023/06/19 01:24:30;;;;;;;3.30;3.00;;;22.50;99.90;;;;;;4975968;28;20530;-87
2023/06/19 01:26:58;;;;;;;4.07;3.08;;;22.50;99.90;;;;;;4975574;28;20197;-87
2023/06/19 01:29:24;;;;;;;6.75;3.10;;;22.40;99.90;;;;;;4975676;28;20645;-86
2023/06/19 01:31:57;;;;;;;2.50;2.30;;;22.40;99.90;;;;;;4975102;28;20601;-86
2023/06/19 01:34:28;;;;;;;3.65;1.73;;;22.30;99.90;;;;;;4975891;28;20208;-85
2023/06/19 01:36:56;;;;;;;2.70;2.20;;;22.30;99.90;;;;;;4982342;28;20210;-85
2023/06/19 01:39:26;;;;;;;3.85;2.10;;;22.30;99.90;;;;;;4995531;28;20199;-89
2023/06/19 01:41:55;;;;;;;2.30;1.90;;;22.20;99.90;;;;;;4994857;28;20200;-84
2023/06/19 01:44:22;;;;;;;2.13;1.77;;;22.10;99.90;;;;;;4995350;28;20204;-88
2023/06/19 01:46:50;;;;;;;2.22;1.98;;;22.00;99.90;;;;;;4995298;28;20852;-88
2023/06/19 01:49:17;;;;;;;4.07;2.38;;;22.00;99.90;;;;;;4994104;28;20967;-90
2023/06/19 01:51:44;;;;;;;6.03;2.50;;;22.00;99.90;;;;;;4994798;28;20236;-87
2023/06/19 01:54:11;;;;;;;3.55;3.25;;;21.90;99.90;;;;;;4994811;28;20203;-82
2023/06/19 01:56:39;;;;;;;3.42;3.13;;;21.90;99.90;;;;;;4990817;28;20208;-86
2023/06/19 01:59:06;;;;;;;4.22;3.28;;;21.90;99.90;;;;;;4985305;28;20196;-85
2023/06/19 02:01:33;;;;;;;3.40;3.10;;;21.80;99.90;;;;;;4985037;28;20720;-84
2023/06/19 02:04:00;;;;;;;3.47;3.17;;;21.80;99.90;;;;;;4974720;28;20272;-89
2023/06/19 02:06:27;;;;;;;4.65;3.20;;;21.70;99.90;;;;;;4978179;28;20236;-87
2023/06/19 02:08:53;;;;;;;4.15;3.17;;;21.70;99.90;;;;;;4994366;28;20598;-85
2023/06/19 02:11:20;;;;;;;4.05;3.60;;;21.70;99.90;;;;;;4987736;28;20784;-86
2023/06/19 02:13:49;;;;;;;3.75;3.42;;;21.60;99.90;;;;;;4994861;28;20218;-87
2023/06/19 02:16:16;;;;;;;4.32;3.92;;;21.60;99.90;;;;;;4996020;28;20618;-86
2023/06/19 02:18:43;;;;;;;4.68;4.20;;;21.60;99.90;;;;;;4984083;28;20207;-85
2023/06/19 02:21:10;;;;;;;5.15;4.72;;;21.60;99.90;;;;;;4981547;28;20292;-87
2023/06/19 02:23:37;;;;;;;7.00;4.70;;;21.50;99.90;;;;;;4981515;28;20284;-84
2023/06/19 02:26:04;;;;;;;5.63;5.07;;;21.50;99.90;;;;;;4981683;28;20211;-86
2023/06/19 02:28:31;;;;;;;6.53;5.97;;;21.50;99.90;;;;;;4981592;28;20255;-87
2023/06/19 02:30:59;;;;;;;7.10;6.47;;;21.50;99.90;;;;;;4981733;28;20221;-86
2023/06/19 02:33:26;;;;;;;8.98;8.10;;;21.50;99.90;;;;;;4981561;28;20529;-84
2023/06/19 02:35:58;;;;;;;10.32;9.30;;;21.50;99.90;;;;;;4981837;28;20279;-82
2023/06/19 02:38:26;;;;;;;11.35;9.63;;;21.50;99.90;;;;;;5000474;28;20261;-87
2023/06/19 02:40:53;;;;;;;11.05;10.05;;;21.40;99.90;;;;;;4996739;28;20208;-86
2023/06/19 02:43:20;;;;;;;13.05;11.95;;;21.40;99.90;;;;;;4981244;28;20235;-81
2023/06/19 02:45:47;;;;;;;15.63;14.13;;;21.40;99.90;;;;;;4988258;28;20215;-87
2023/06/19 02:48:16;;;;;;;16.17;14.68;;;21.40;99.90;;;;;;5000693;28;20310;-85
2023/06/19 02:50:43;;;;;;;17.17;15.68;;;21.30;99.90;;;;;;4988597;28;20317;-87
2023/06/19 02:53:11;;;;;;;15.48;14.00;;;21.30;99.90;;;;;;4981359;28;20189;-88
2023/06/19 02:55:37;;;;;;;16.65;15.05;;;21.20;99.90;;;;;;4992788;28;20212;-85
2023/06/19 02:58:05;;;;;;;17.63;16.02;;;21.20;99.90;;;;;;5000311;28;20307;-84
2023/06/19 03:00:31;;;;;;;18.23;16.73;;;21.20;99.90;;;;;;5000474;28;20612;-88
2023/06/19 03:02:59;;;;;;;19.35;17.20;;;21.20;99.90;;;;;;5000357;28;20224;-86
2023/06/19 03:05:28;;;;;;;17.70;15.70;;;21.20;99.90;;;;;;4985459;28;20613;-86
2023/06/19 03:07:55;;;;;;;14.95;13.73;;;21.20;99.90;;;;;;4980354;28;20193;-84
2023/06/19 03:10:21;;;;;;;17.33;15.82;;;21.10;99.90;;;;;;4982616;28;20227;-81
2023/06/19 03:12:48;;;;;;;16.50;15.10;;;21.20;99.90;;;;;;4999789;28;20207;-86
2023/06/19 03:15:15;;;;;;;16.10;14.70;;;21.20;99.90;;;;;;4999448;28;20640;-87
2023/06/19 03:17:42;;;;;;;16.73;15.30;;;21.10;99.90;;;;;;4980029;28;20777;-85
2023/06/19 03:20:11;;;;;;;16.20;14.65;;;21.10;99.90;;;;;;4980604;28;20713;-86
2023/06/19 03:22:40;;;;;;;16.50;14.93;;;21.10;99.90;;;;;;4980234;28;20208;-87
2023/06/19 03:25:08;;;;;;;18.20;16.48;;;21.10;99.90;;;;;;4980394;28;20235;-85
2023/06/19 03:27:36;;;;;;;20.15;18.17;;;21.10;99.90;;;;;;4978942;28;20205;-84
2023/06/19 03:30:05;;;;;;;19.15;17.23;;;21.10;99.90;;;;;;4980663;28;20207;-86
2023/06/19 03:32:32;;;;;;;22.85;20.42;;;21.00;99.90;;;;;;4997129;28;20215;-91
2023/06/19 03:34:59;;;;;;;25.77;22.67;;;21.00;99.90;;;;;;4997349;28;20202;-85
2023/06/19 03:37:26;;;;;;;28.58;25.75;;;21.00;99.90;;;;;;4981694;28;20205;-88
2023/06/19 03:39:55;;;;;;;31.30;27.92;;;21.00;99.90;;;;;;4977404;28;20200;-84
2023/06/19 03:42:22;;;;;;;32.28;26.95;;;21.00;99.90;;;;;;4995491;28;20263;-84
2023/06/19 03:44:49;;;;;;;29.08;25.92;;;20.90;99.90;;;;;;4996741;28;20211;-84
2023/06/19 03:47:16;;;;;;;33.65;25.92;;;20.80;99.90;;;;;;4997030;28;20788;-85
2023/06/19 03:49:43;;;;;;;27.63;24.27;;;20.80;99.90;;;;;;4993987;28;20306;-84
2023/06/19 03:52:10;;;;;;;29.95;20.83;;;20.70;99.90;;;;;;4976415;28;20204;-81
2023/06/19 03:54:37;;;;;;;32.42;21.63;;;20.60;99.90;;;;;;4957897;29;20198;-84
2023/06/19 03:57:06;;;;;;;24.55;20.45;;;20.50;99.90;;;;;;4957533;29;20296;-86
2023/06/19 03:59:33;;;;;;;29.77;23.48;;;20.40;99.90;;;;;;4958124;28;20693;-84
2023/06/19 04:02:00;;;;;;;30.15;22.23;;;20.40;99.90;;;;;;4957985;29;20492;-84
2023/06/19 04:04:26;;;;;;;33.70;26.50;;;20.40;99.90;;;;;;4957386;28;20232;-82
2023/06/19 04:06:53;;;;;;;32.17;27.75;;;20.40;99.90;;;;;;4957591;29;20216;-86
2023/06/19 04:09:20;;;;;;;38.50;30.52;;;20.40;99.90;;;;;;4957954;28;20587;-84
2023/06/19 04:11:48;;;;;;;39.85;35.10;;;20.30;99.90;;;;;;4957324;29;20201;-85
2023/06/19 04:14:16;;;;;;;58.42;41.50;;;20.30;99.90;;;;;;4957607;29;20280;-82
2023/06/19 04:16:43;;;;;;;60.33;43.95;;;20.20;99.90;;;;;;4972894;28;20220;-87
2023/06/19 04:19:10;;;;;;;56.08;42.13;;;20.20;99.90;;;;;;4976081;28;20204;-84
2023/06/19 04:21:37;;;;;;;60.10;42.30;;;20.10;99.90;;;;;;4971487;28;20201;-84
2023/06/19 04:24:04;;;;;;;66.60;41.83;;;20.10;99.90;;;;;;4956320;29;20239;-82
2023/06/19 04:26:31;;;;;;;64.07;43.60;;;20.00;99.90;;;;;;4957080;29;20578;-85
2023/06/19 04:28:59;;;;;;;60.45;39.50;;;19.90;99.90;;;;;;4957150;29;20367;-83
2023/06/19 04:31:28;;;;;;;64.40;41.38;;;19.80;99.90;;;;;;4969111;28;20204;-83
2023/06/19 04:33:56;;;;;;;58.30;38.95;;;19.80;99.90;;;;;;4976488;28;20288;-82
2023/06/19 04:36:23;;;;;;;61.58;41.28;;;19.70;99.90;;;;;;4957797;28;20220;-80
2023/06/19 04:38:51;;;;;;;76.65;45.90;;;19.70;99.90;;;;;;4956965;28;20190;-87
2023/06/19 04:41:18;;;;;;;84.60;50.00;;;19.70;99.90;;;;;;4957285;29;20224;-83
2023/06/19 04:43:44;;;;;;;81.57;47.95;;;19.60;99.90;;;;;;4957042;29;20293;-86
2023/06/19 04:46:11;;;;;;;70.43;43.45;;;19.60;99.90;;;;;;4956007;29;20256;-86
2023/06/19 04:48:41;;;;;;;78.65;44.78;;;19.60;99.90;;;;;;4957579;28;20205;-85
2023/06/19 04:51:08;;;;;;;72.38;44.17;;;19.50;99.90;;;;;;4969980;28;20303;-86
2023/06/19 04:53:35;;;;;;;53.35;37.80;;;19.50;99.90;;;;;;4976093;28;20208;-82
2023/06/19 04:56:01;;;;;;;49.65;34.67;;;19.50;99.90;;;;;;4976030;28;20226;-79
2023/06/19 04:58:28;;;;;;;47.78;33.03;;;19.50;99.90;;;;;;4975587;28;20822;-83
2023/06/19 05:00:55;;;;;;;44.67;31.95;;;19.50;99.90;;;;;;4975555;28;20287;-83
2023/06/19 05:03:22;;;;;;;45.38;29.77;;;19.40;99.90;;;;;;4994876;28;20212;-82
2023/06/19 05:05:52;;;;;;;36.38;27.05;;;19.40;99.90;;;;;;4995236;28;20282;-83
2023/06/19 05:08:18;;;;;;;31.63;25.00;;;19.40;99.90;;;;;;4993861;28;20214;-86
2023/06/19 05:10:45;;;;;;;36.90;25.98;;;19.40;99.90;;;;;;4995379;28;20226;-81
2023/06/19 05:13:13;;;;;;;34.88;21.58;;;19.40;99.90;;;;;;4994609;28;20298;-84
2023/06/19 05:15:39;;;;;;;28.90;20.27;;;19.40;99.90;;;;;;4990945;28;20653;-83
2023/06/19 05:18:06;;;;;;;27.73;18.27;;;19.40;99.90;;;;;;4975426;28;20193;-83
2023/06/19 05:20:33;;;;;;;25.15;16.10;;;19.30;99.90;;;;;;4974592;28;20551;-83
2023/06/19 05:23:01;;;;;;;23.80;15.40;;;19.40;99.90;;;;;;4975641;28;20228;-82
2023/06/19 05:25:28;;;;;;;28.92;16.52;;;19.30;99.90;;;;;;4974345;28;20236;-86
2023/06/19 05:27:56;;;;;;;24.92;14.70;;;19.30;99.90;;;;;;4974726;28;20235;-84
2023/06/19 05:30:22;;;;;;;23.48;13.95;;;19.30;99.90;;;;;;4975040;28;20231;-80
2023/06/19 05:32:49;;;;;;;22.35;14.30;;;19.30;99.90;;;;;;4986893;28;20283;-84
2023/06/19 05:35:16;;;;;;;18.90;12.93;;;19.30;99.90;;;;;;4994540;28;20231;-85
2023/06/19 05:37:43;;;;;;;20.63;14.00;;;19.30;99.90;;;;;;4977182;28;20208;-82
2023/06/19 05:40:12;;;;;;;25.52;13.90;;;19.30;99.90;;;;;;4991896;28;20208;-86
2023/06/19 05:42:40;;;;;;;21.30;13.02;;;19.30;99.90;;;;;;4994734;28;20204;-83
2023/06/19 05:45:08;;;;;;;21.45;13.40;;;19.30;99.90;;;;;;4993712;28;20510;-86
2023/06/19 05:47:35;;;;;;;21.33;12.88;;;19.30;99.90;;;;;;4975174;28;20565;-83
2023/06/19 05:50:02;;;;;;;21.60;13.65;;;19.30;99.90;;;;;;4974556;28;20225;-81
2023/06/19 05:52:29;;;;;;;21.02;13.63;;;19.30;99.90;;;;;;4973929;28;20232;-87
2023/06/19 05:54:57;;;;;;;25.67;13.18;;;19.30;99.90;;;;;;4986140;28;20279;-84
2023/06/19 05:57:26;;;;;;;23.40;13.82;;;19.30;99.90;;;;;;4993932;28;20196;-84
2023/06/19 05:59:53;;;;;;;20.67;14.70;;;19.30;99.90;;;;;;4983253;28;20208;-85
2023/06/19 06:02:22;;;;;;;27.38;14.73;;;19.30;99.90;;;;;;4974318;28;20503;-83
2023/06/19 06:04:48;;;;;;;36.45;15.40;;;19.30;99.90;;;;;;4975068;28;20236;-85
2023/06/19 06:07:15;;;;;;;21.08;14.13;;;19.30;99.90;;;;;;4974698;28;20299;-83
2023/06/19 06:09:42;;;;;;;19.17;13.90;;;19.30;99.90;;;;;;4974036;28;20232;-84
2023/06/19 06:12:09;;;;;;;20.98;14.82;;;19.30;99.90;;;;;;4980626;28;20207;-86
2023/06/19 06:14:38;;;;;;;26.48;16.65;;;19.30;99.90;;;;;;4986286;28;20215;-85
2023/06/19 06:17:05;;;;;;;23.95;16.90;;;19.30;99.90;;;;;;4974466;28;20220;-86
2023/06/19 06:19:32;;;;;;;27.15;16.95;;;19.40;99.90;;;;;;4990228;28;20211;-85
2023/06/19 06:21:59;;;;;;;21.27;14.82;;;19.50;99.90;;;;;;4994223;28;20211;-86
2023/06/19 06:24:28;;;;;;;28.63;17.98;;;19.50;99.90;;;;;;4987373;28;20228;-83
2023/06/19 06:26:55;;;;;;;27.08;18.77;;;19.50;99.90;;;;;;4991049;28;20208;-86
2023/06/19 06:29:22;;;;;;;22.73;17.05;;;19.50;99.90;;;;;;4981304;28;20306;-86
2023/06/19 06:31:52;;;;;;;25.02;18.80;;;19.50;99.90;;;;;;4985896;28;20292;-85
2023/06/19 06:34:19;;;;;;;27.13;19.58;;;19.50;99.90;;;;;;4994379;28;20219;-82
2023/06/19 06:36:46;;;;;;;22.92;18.48;;;19.40;99.90;;;;;;4989151;28;20259;-85
2023/06/19 06:39:12;;;;;;;22.75;18.02;;;19.40;99.90;;;;;;4982420;28;20200;-90
2023/06/19 06:41:39;;;;;;;29.17;19.13;;;19.50;99.90;;;;;;4992791;28;20211;-84
2023/06/19 06:44:06;;;;;;;22.50;19.30;;;19.40;99.90;;;;;;4991765;28;20231;-88
2023/06/19 06:46:33;;;;;;;27.20;17.65;;;19.50;99.90;;;;;;4993101;28;20824;-84
2023/06/19 06:49:02;;;;;;;28.50;17.23;;;19.50;99.90;;;;;;4992607;28;20778;-83
2023/06/19 06:51:28;;;;;;;18.83;15.57;;;19.40;99.90;;;;;;4978637;28;20331;-85
2023/06/19 06:53:56;;;;;;;26.52;16.67;;;19.40;99.90;;;;;;4990386;28;20287;-86
2023/06/19 06:56:23;;;;;;;23.70;16.67;;;19.40;99.90;;;;;;4993725;28;20283;-87
2023/06/19 06:58:50;;;;;;;18.15;15.40;;;19.40;99.90;;;;;;4992009;28;20645;-86
2023/06/19 07:01:16;;;;;;;19.08;14.75;;;19.40;99.90;;;;;;4992699;28;20286;-87
2023/06/19 07:03:43;;;;;;;17.42;14.45;;;19.40;99.90;;;;;;4991990;28;20616;-86
2023/06/19 07:06:12;;;;;;;20.13;14.75;;;19.40;99.90;;;;;;4991211;28;20279;-87
2023/06/19 07:08:40;;;;;;;17.55;14.45;;;19.40;99.90;;;;;;4986015;28;20212;-87
2023/06/19 07:11:07;;;;;;;22.08;15.48;;;19.40;99.90;;;;;;4996633;28;20226;-81
2023/06/19 07:13:34;;;;;;;18.95;15.63;;;19.40;99.90;;;;;;4996181;28;20235;-83
2023/06/19 07:16:01;;;;;;;24.15;16.17;;;19.40;99.90;;;;;;4997563;28;20275;-83
2023/06/19 07:18:29;;;;;;;24.58;18.67;;;19.30;99.90;;;;;;4993445;28;20210;-84
2023/06/19 07:20:56;;;;;;;23.08;19.05;;;19.30;99.90;;;;;;4987789;28;20255;-83
2023/06/19 07:23:24;;;;;;;26.88;17.73;;;19.30;99.90;;;;;;4985956;28;20200;-84
2023/06/19 07:25:51;;;;;;;30.02;20.17;;;19.30;99.90;;;;;;4996026;28;20561;-84
2023/06/19 07:28:18;;;;;;;28.98;19.65;;;19.30;99.90;;;;;;4995824;28;20283;-83
2023/06/19 07:30:47;;;;;;;22.77;19.35;;;19.40;99.90;;;;;;4985223;28;20225;-87
2023/06/19 07:33:14;;;;;;;28.95;22.05;;;19.40;99.90;;;;;;4978202;28;20260;-84
2023/06/19 07:35:41;;;;;;;33.42;20.98;;;19.40;99.90;;;;;;4978225;28;20264;-85
2023/06/19 07:38:08;;;;;;;38.15;22.25;;;19.30;99.90;;;;;;4988837;28;20201;-83
2023/06/19 07:40:36;;;;;;;35.75;22.85;;;19.20;99.90;;;;;;4978882;28;20203;-84
2023/06/19 07:43:03;;;;;;;26.08;20.60;;;19.20;99.90;;;;;;4988228;28;20216;-77
2023/06/19 07:45:30;;;;;;;27.02;21.98;;;19.20;99.90;;;;;;4978474;28;20204;-83
2023/06/19 07:47:57;;;;;;;26.35;20.70;;;19.20;99.90;;;;;;4995909;28;20214;-83
2023/06/19 07:50:23;;;;;;;26.17;20.80;;;19.20;99.90;;;;;;4983347;28;20272;-81
2023/06/19 07:52:50;;;;;;;27.42;20.42;;;19.20;99.90;;;;;;4984371;28;20208;-84
2023/06/19 07:55:18;;;;;;;23.90;19.10;;;19.20;99.90;;;;;;4979269;28;20212;-85
2023/06/19 07:57:46;;;;;;;25.58;19.25;;;19.20;99.90;;;;;;4990600;28;20792;-85
2023/06/19 08:00:14;;;;;;;21.73;18.15;;;19.20;99.90;;;;;;4996493;28;20234;-80
2023/06/19 08:02:42;;;;;;;20.23;16.33;;;19.20;99.90;;;;;;4985846;28;20244;-84
2023/06/19 08:05:09;;;;;;;21.30;17.23;;;19.20;99.90;;;;;;4977161;28;20220;-81
2023/06/19 08:07:39;;;;;;;23.63;17.08;;;19.30;99.90;;;;;;4993551;28;20279;-83
2023/06/19 08:10:07;;;;;;;23.90;17.77;;;19.30;99.90;;;;;;4979144;28;20220;-86
2023/06/19 08:12:34;;;;;;;26.92;20.02;;;19.40;99.90;;;;;;4977805;28;20208;-81
2023/06/19 08:15:02;;;;;;;24.02;19.25;;;19.50;99.90;;;;;;4977613;28;20263;-80
2023/06/19 08:17:29;;;;;;;24.73;19.55;;;19.50;99.90;;;;;;4992269;28;20263;-83
2023/06/19 08:19:56;;;;;;;20.83;16.35;;;19.60;99.90;;;;;;4995292;28;20500;-86
2023/06/19 08:22:24;;;;;;;25.60;18.73;;;19.70;99.90;;;;;;4995918;28;20200;-85
2023/06/19 08:24:51;;;;;;;24.70;17.73;;;19.70;99.90;;;;;;4991265;28;20269;-86
2023/06/19 08:27:18;;;;;;;25.65;17.98;;;19.70;99.90;;;;;;4996470;28;20200;-85
2023/06/19 08:29:45;;;;;;;25.50;18.45;;;19.70;99.90;;;;;;4990753;28;20196;-85
2023/06/19 08:32:14;;;;;;;25.30;16.25;;;19.80;99.90;;;;;;4977352;28;20668;-84
2023/06/19 08:34:41;;;;;;;20.70;16.13;;;19.80;99.90;;;;;;4982091;28;20243;-88
2023/06/19 08:37:09;;;;;;;22.90;16.65;;;19.80;99.90;;;;;;4976586;28;20204;-87
2023/06/19 08:39:37;;;;;;;21.23;16.85;;;19.90;99.90;;;;;;4976863;28;20552;-86
2023/06/19 08:42:05;;;;;;;22.25;16.85;;;19.80;99.90;;;;;;4985987;28;20271;-84
2023/06/19 08:44:34;;;;;;;20.10;16.52;;;19.80;99.90;;;;;;4995836;28;20214;-82
2023/06/19 08:47:03;;;;;;;18.42;15.05;;;19.80;99.90;;;;;;4996086;28;20204;-85
2023/06/19 08:49:33;;;;;;;18.15;15.18;;;19.80;99.90;;;;;;4995610;28;20214;-83
2023/06/19 08:52:00;;;;;;;17.55;15.23;;;19.80;99.90;;;;;;4987357;28;20232;-84
2023/06/19 08:54:27;;;;;;;19.35;15.43;;;19.90;99.90;;;;;;4976468;28;20205;-87
2023/06/19 08:56:54;;;;;;;17.25;13.50;;;20.00;99.90;;;;;;4987166;28;20232;-85
2023/06/19 08:59:22;;;;;;;16.70;13.57;;;20.10;99.90;;;;;;4995840;28;20485;-85
2023/06/19 09:01:51;;;;;;;17.98;14.60;;;20.20;99.90;;;;;;4991493;28;20231;-82
2023/06/19 09:04:20;;;;;;;19.40;14.45;;;20.20;99.90;;;;;;4982825;28;20209;-83
2023/06/19 09:06:53;;;;;;;19.30;15.63;;;20.30;99.90;;;;;;4967238;28;20211;-82
2023/06/19 09:09:21;;;;;;;17.33;12.70;;;20.40;99.90;;;;;;4988064;28;20601;-82
2023/06/19 09:11:58;;;;;;;17.27;14.40;;;20.40;99.90;;;;;;4990016;28;20808;-83
2023/06/19 09:14:32;;;;;;;18.88;15.18;;;20.60;99.90;;;;;;4991037;28;20548;-82
2023/06/19 09:16:58;;;;;;;16.73;14.23;;;20.70;99.90;;;;;;4994751;28;20611;-82
2023/06/19 09:19:25;;;;;;;18.85;15.13;;;20.90;99.90;;;;;;4988885;28;20220;-80
2023/06/19 09:21:54;;;;;;;17.23;13.82;;;21.10;99.90;;;;;;4990787;28;20206;-81
2023/06/19 09:24:21;;;;;;;18.95;13.45;;;21.30;99.90;;;;;;4988854;28;20228;-82
2023/06/19 09:26:47;;;;;;;15.15;12.10;;;21.40;99.90;;;;;;4979491;28;20205;-80
2023/06/19 09:29:17;;;;;;;15.52;12.02;;;21.60;99.90;;;;;;4980903;28;20264;-83
2023/06/19 09:31:46;;;;;;;14.77;11.85;;;21.70;99.90;;;;;;4991689;28;20247;-82
2023/06/19 09:34:13;;;;;;;14.23;11.45;;;22.00;99.90;;;;;;4977849;28;20218;-82
2023/06/19 09:36:41;;;;;;;14.63;11.85;;;22.10;99.90;;;;;;4974133;28;20519;-82
2023/06/19 09:39:11;;;;;;;19.23;12.70;;;22.30;99.90;;;;;;4982200;28;20228;-81
2023/06/19 09:41:40;;;;;;;15.60;11.40;;;22.50;99.90;;;;;;4973461;28;20189;-81
2023/06/19 09:44:12;;;;;;;17.77;11.77;;;22.60;99.90;;;;;;4980769;28;20227;-82
2023/06/19 09:46:45;;;;;;;15.48;10.77;;;22.80;99.90;;;;;;4993088;28;20488;-81
2023/06/19 09:49:15;;;;;;;12.88;10.60;;;22.90;99.90;;;;;;4974273;28;20661;-86
2023/06/19 09:51:42;;;;;;;12.88;9.73;;;23.00;99.90;;;;;;4989245;28;20235;-85
2023/06/19 09:54:12;;;;;;;11.20;9.27;;;23.00;99.90;;;;;;4984050;28;20516;-83
2023/06/19 09:56:39;;;;;;;13.85;10.05;;;23.00;99.90;;;;;;4977168;28;20526;-84
2023/06/19 09:59:09;;;;;;;14.38;10.35;;;23.00;99.90;;;;;;4980981;28;20287;-83
2023/06/19 10:01:37;;;;;;;13.07;10.60;;;23.00;99.90;;;;;;4993098;28;20644;-81
2023/06/19 10:04:06;;;;;;;12.32;9.65;;;22.90;99.90;;;;;;4991628;28;20227;-84
2023/06/19 10:06:33;;;;;;;13.63;9.45;;;22.90;99.90;;;;;;4993005;28;20279;-83
2023/06/19 10:09:08;;;;;;;12.65;10.10;;;22.80;99.90;;;;;;4993843;28;20211;-84
2023/06/19 10:11:51;;;;;;;13.45;11.05;;;22.80;99.90;;;;;;4993324;28;20281;-85
2023/06/19 10:14:19;;;;;;;13.10;10.48;;;22.80;99.90;;;;;;4989903;28;20204;-85
2023/06/19 10:16:46;;;;;;;9.20;7.78;;;22.80;99.90;;;;;;4994276;28;20310;-86
2023/06/19 10:19:15;;;;;;;14.57;10.48;;;23.10;99.90;;;;;;4991645;28;20204;-84
2023/06/19 10:21:47;;;;;;;11.75;9.25;;;23.20;99.90;;;;;;4994133;28;20196;-86
2023/06/19 10:24:18;;;;;;;12.32;9.68;;;23.30;99.90;;;;;;4993341;28;20219;-84
2023/06/19 10:26:45;;;;;;;12.00;8.98;;;23.20;99.90;;;;;;4993601;28;20584;-84
2023/06/19 10:29:18;;;;;;;12.60;10.00;;;23.20;99.90;;;;;;4991251;28;20294;-83
2023/06/19 10:31:45;;;;;;;11.30;9.10;;;23.30;99.90;;;;;;4992608;28;20218;-82
2023/06/19 10:34:12;;;;;;;11.50;9.27;;;23.20;99.90;;;;;;4993505;28;20283;-84
2023/06/19 10:36:39;;;;;;;12.95;10.25;;;23.20;99.90;;;;;;4993529;28;20204;-83
2023/06/19 10:39:07;;;;;;;15.50;10.63;;;23.10;99.90;;;;;;4991209;28;20255;-84
2023/06/19 10:41:34;;;;;;;10.48;9.38;;;23.10;99.90;;;;;;4998041;28;20659;-87
2023/06/19 10:44:03;;;;;;;11.65;9.13;;;23.10;99.90;;;;;;4995593;28;20210;-83
2023/06/19 10:46:33;;;;;;;9.98;8.20;;;23.10;99.90;;;;;;4996861;28;20199;-83
2023/06/19 10:49:01;;;;;;;11.10;9.60;;;23.10;99.90;;;;;;4997477;28;20196;-82
2023/06/19 10:51:29;;;;;;;10.10;9.10;;;23.20;99.90;;;;;;4984867;28;20231;-82
2023/06/19 10:53:56;;;;;;;12.18;9.63;;;23.30;99.90;;;;;;4978786;28;20291;-84
2023/06/19 10:56:24;;;;;;;15.23;10.05;;;23.30;99.90;;;;;;4978118;28;20208;-78
2023/06/19 10:58:58;;;;;;;10.75;9.25;;;23.40;99.90;;;;;;4977417;28;20248;-82
2023/06/19 11:01:37;;;;;;;13.73;9.10;;;23.30;99.90;;;;;;4977834;28;20215;-82
2023/06/19 11:04:08;;;;;;;10.43;9.38;;;23.40;99.90;;;;;;4976722;28;20211;-83
2023/06/19 11:06:37;;;;;;;13.88;8.60;;;23.40;99.90;;;;;;4977746;28;20196;-85
2023/06/19 11:09:05;;;;;;;11.13;8.90;;;23.50;99.90;;;;;;4991474;28;20569;-82
2023/06/19 11:11:37;;;;;;;11.00;8.98;;;23.70;99.90;;;;;;4992355;28;20298;-80
2023/06/19 11:14:04;;;;;;;9.93;8.27;;;24.00;99.90;;;;;;4992733;28;20287;-79
2023/06/19 11:16:33;;;;;;;10.68;7.80;;;24.30;99.90;;;;;;4996232;28;20745;-81
2023/06/19 11:19:00;;;;;;;8.80;7.93;;;24.50;99.90;;;;;;4995253;28;20235;-83
2023/06/19 11:21:32;;;;;;;8.90;7.13;;;24.70;99.90;;;;;;4994477;28;20219;-85
2023/06/19 11:24:00;;;;;;;11.20;7.70;;;24.80;99.90;;;;;;4996619;28;20334;-80
2023/06/19 11:26:27;;;;;;;11.07;7.50;;;25.10;99.90;;;;;;4995609;28;20811;-83
2023/06/19 11:28:55;;;;;;;13.80;8.93;;;25.40;99.90;;;;;;4993705;28;20201;-86
2023/06/19 11:31:27;;;;;;;8.90;7.05;;;25.50;99.90;;;;;;4997064;28;20771;-85
2023/06/19 11:33:59;;;;;;;10.18;8.57;;;25.50;99.90;;;;;;4993148;28;20215;-80
2023/06/19 11:36:26;;;;;;;9.07;7.30;;;25.50;99.90;;;;;;4996807;28;20207;-83
2023/06/19 11:38:53;;;;;;;12.02;7.60;;;25.50;99.90;;;;;;4996377;28;20303;-80
2023/06/19 11:41:27;;;;;;;12.48;8.60;;;25.70;99.90;;;;;;4992105;28;20286;-84
2023/06/19 11:44:00;;;;;;;11.73;7.55;;;25.80;99.90;;;;;;4986278;28;20216;-83
2023/06/19 11:46:32;;;;;;;12.88;7.25;;;25.90;99.90;;;;;;4976779;28;20209;-84
2023/06/19 11:49:10;;;;;;;7.78;7.05;;;25.90;99.90;;;;;;4990127;28;20208;-79
2023/06/19 11:51:37;;;;;;;10.25;6.95;;;26.00;99.90;;;;;;4993313;28;20263;-85
2023/06/19 11:54:06;;;;;;;11.98;7.78;;;26.10;99.90;;;;;;4996031;28;20218;-83
2023/06/19 11:56:33;;;;;;;11.90;7.55;;;26.10;99.90;;;;;;4995628;28;20208;-83
2023/06/19 11:59:00;;;;;;;11.20;6.80;;;26.00;99.90;;;;;;4995565;28;20597;-83
2023/06/19 12:01:27;;;;;;;10.02;6.90;;;26.00;99.90;;;;;;4995791;28;20499;-83
2023/06/19 12:03:54;;;;;;;8.50;6.40;;;26.10;99.90;;;;;;4985068;28;20215;-86
2023/06/19 12:06:23;;;;;;;13.77;7.50;;;26.20;99.90;;;;;;4977070;28;20200;-83
2023/06/19 12:08:50;;;;;;;8.45;6.50;;;26.30;99.90;;;;;;4977137;28;20200;-83
2023/06/19 12:11:17;;;;;;;10.40;6.68;;;26.30;99.90;;;;;;4976581;28;20234;-83
2023/06/19 12:13:44;;;;;;;10.73;6.00;;;26.30;99.90;;;;;;4977671;28;20224;-87
2023/06/19 12:16:11;;;;;;;10.00;6.50;;;26.50;99.90;;;;;;4977368;28;20255;-87
2023/06/19 12:18:39;;;;;;;11.70;6.88;;;26.50;99.90;;;;;;4976817;28;20211;-85
2023/06/19 12:21:06;;;;;;;7.85;6.35;;;26.60;99.90;;;;;;4976852;28;20216;-85
2023/06/19 12:23:35;;;;;;;11.02;6.93;;;26.60;99.90;;;;;;4976253;28;20530;-87
2023/06/19 12:26:02;;;;;;;11.07;6.25;;;26.70;99.90;;;;;;4976725;28;20586;-82
2023/06/19 12:28:29;;;;;;;9.88;6.88;;;26.70;99.90;;;;;;4977374;28;20200;-86
2023/06/19 12:30:58;;;;;;;10.10;6.35;;;26.80;99.90;;;;;;4976352;28;20205;-85
2023/06/19 12:33:25;;;;;;;8.77;6.43;;;26.70;99.90;;;;;;4977097;28;20260;-83
2023/06/19 12:35:51;;;;;;;9.07;6.18;;;26.80;99.90;;;;;;4977182;28;20289;-86